Matao, Brazil
Current Conditions -  °F | °C
As of 6:00 PM on Friday 21 Nov 2014 (Local Time) from SBRP Reporting Station
Broken Clouds Broken Clouds  
Wind Chill: 88°   Ceiling: 9000
Heat Index: 88°   Visibility: 6mi
Dew Point: 57°   Wind: 10mph
Humidity: 35%   Direction: 220°SW
Pressure: 29.85"   Gusts: NA
Location:  21.58°S, 48.37°W
Report Text: SBRP 212000Z 22009KT 9999 SCT040 BKN090 31/14 Q1011
Loading
Personal Weather Stations






























Interactive Weather Map New forecast layout! Learn more

10-Day Weather Forecast

Advertisements
Track Severe Weather on mobile